createdAt,value
2019-03-27T00:02:26.055Z,6.70
2019-03-27T00:04:54.539Z,6.60
2019-03-27T00:07:23.034Z,6.50
2019-03-27T00:09:51.566Z,6.40
2019-03-27T00:12:19.842Z,6.20
2019-03-27T00:14:48.134Z,6.10
2019-03-27T00:17:16.757Z,6.00
2019-03-27T00:19:45.606Z,5.90
2019-03-27T00:22:13.933Z,6.00
2019-03-27T00:24:42.171Z,5.90
2019-03-27T00:27:10.702Z,5.70
2019-03-27T00:29:38.901Z,5.60
2019-03-27T00:32:07.279Z,5.80
2019-03-27T00:34:36.371Z,5.80
2019-03-27T00:37:05.391Z,5.90
2019-03-27T00:39:34.286Z,6.00
2019-03-27T00:42:03.174Z,6.00
2019-03-27T00:44:31.482Z,6.00
2019-03-27T00:46:59.665Z,5.90
2019-03-27T00:49:47.485Z,5.80
2019-03-27T00:52:15.610Z,5.70
2019-03-27T00:54:43.972Z,5.90
2019-03-27T00:57:33.062Z,6.00
2019-03-27T01:00:01.858Z,6.00
2019-03-27T01:02:30.082Z,6.00
2019-03-27T01:05:20.754Z,5.90
2019-03-27T01:07:49.090Z,5.90
2019-03-27T01:10:22.463Z,5.90
2019-03-27T01:12:50.734Z,5.90
2019-03-27T01:15:19.231Z,6.00
2019-03-27T01:17:47.490Z,6.00
2019-03-27T01:20:15.632Z,6.00
2019-03-27T01:22:44.664Z,5.90
2019-03-27T01:25:20.153Z,5.90
2019-03-27T01:27:50.303Z,5.90
2019-03-27T01:30:18.781Z,6.00
2019-03-27T01:36:18.076Z,6.00
2019-03-27T01:38:46.565Z,6.00
2019-03-27T01:41:15.124Z,6.00
2019-03-27T01:44:00.190Z,6.10
2019-03-27T01:46:28.371Z,6.10
2019-03-27T01:49:03.713Z,6.00
2019-03-27T01:51:32.015Z,6.10
2019-03-27T01:54:25.794Z,6.20
2019-03-27T01:56:53.938Z,6.20
2019-03-27T01:59:23.317Z,6.20
2019-03-27T02:01:51.511Z,6.30
2019-03-27T02:04:20.947Z,6.30
2019-03-27T02:06:49.175Z,6.30
2019-03-27T02:09:17.387Z,6.40
2019-03-27T02:11:45.586Z,6.40
2019-03-27T02:14:13.938Z,6.50
2019-03-27T02:16:42.603Z,6.50
2019-03-27T02:19:10.938Z,6.50
2019-03-27T02:21:39.159Z,6.50
2019-03-27T02:24:07.282Z,6.50
2019-03-27T02:26:35.904Z,6.50
2019-03-27T02:29:04.109Z,6.50
2019-03-27T02:31:32.867Z,6.60
2019-03-27T02:34:01.134Z,6.50
2019-03-27T02:36:29.719Z,6.40
2019-03-27T02:38:57.919Z,6.40
2019-03-27T02:41:26.126Z,6.40
2019-03-27T02:43:54.381Z,6.40
2019-03-27T02:46:24.853Z,6.40
2019-03-27T02:48:53.672Z,6.40
2019-03-27T02:51:21.814Z,6.40
2019-03-27T02:53:50.438Z,6.40
2019-03-27T02:56:18.586Z,6.40
2019-03-27T02:58:46.738Z,6.40
2019-03-27T03:01:15.242Z,6.40
2019-03-27T03:03:43.391Z,6.40
2019-03-27T03:06:11.991Z,6.50
2019-03-27T03:08:40.142Z,6.50
2019-03-27T03:11:09.272Z,6.50
2019-03-27T03:13:38.028Z,6.50
2019-03-27T03:16:06.597Z,6.50
2019-03-27T03:18:35.291Z,6.50
2019-03-27T03:21:03.895Z,6.50
2019-03-27T03:23:32.257Z,6.50
2019-03-27T03:26:00.461Z,6.40
2019-03-27T03:28:28.625Z,6.40
2019-03-27T03:30:56.779Z,6.40
2019-03-27T03:33:25.731Z,6.50
2019-03-27T03:35:53.845Z,6.50
2019-03-27T03:38:22.440Z,6.50
2019-03-27T03:40:50.982Z,6.50
2019-03-27T03:43:19.172Z,6.50
2019-03-27T03:45:47.359Z,6.50
2019-03-27T03:48:15.617Z,6.60
2019-03-27T03:50:44.676Z,6.50
2019-03-27T03:53:13.851Z,6.40
2019-03-27T03:55:42.498Z,6.50
2019-03-27T03:58:14.870Z,6.50
2019-03-27T04:00:43.929Z,6.50
2019-03-27T04:03:12.098Z,6.50
2019-03-27T04:05:40.328Z,6.50
2019-03-27T04:08:12.117Z,6.50
2019-03-27T04:10:40.404Z,6.60
2019-03-27T04:13:08.898Z,6.50
2019-03-27T04:15:37.184Z,6.60
2019-03-27T04:18:05.426Z,6.60
2019-03-27T04:20:33.619Z,6.60
2019-03-27T04:23:01.716Z,6.60
2019-03-27T04:25:29.992Z,6.50
2019-03-27T04:27:58.533Z,6.60
2019-03-27T04:30:26.686Z,6.70
2019-03-27T04:32:54.869Z,6.70
2019-03-27T04:35:23.165Z,6.70
2019-03-27T04:37:52.058Z,6.60
2019-03-27T04:40:20.229Z,6.60
2019-03-27T04:42:48.460Z,6.70
2019-03-27T04:45:17.035Z,6.60
2019-03-27T04:47:45.127Z,6.60
2019-03-27T04:50:13.665Z,6.70
2019-03-27T04:52:41.946Z,6.70
2019-03-27T04:55:10.181Z,6.70
2019-03-27T04:57:38.462Z,6.70
2019-03-27T05:00:07.684Z,6.60
2019-03-27T05:02:36.041Z,6.70
2019-03-27T05:05:05.098Z,6.70
2019-03-27T05:07:33.494Z,6.60
2019-03-27T05:10:02.056Z,6.60
2019-03-27T05:12:30.678Z,6.50
2019-03-27T05:14:58.851Z,6.50
2019-03-27T05:17:27.111Z,6.60
2019-03-27T05:19:55.554Z,6.60
2019-03-27T05:22:23.852Z,6.50
2019-03-27T05:24:51.976Z,6.50
2019-03-27T05:27:20.202Z,6.50
2019-03-27T05:29:48.316Z,6.60
2019-03-27T05:32:16.891Z,6.60
2019-03-27T05:34:45.328Z,6.60
2019-03-27T05:37:13.901Z,6.70
2019-03-27T05:39:42.785Z,6.70
2019-03-27T05:42:10.842Z,6.80
2019-03-27T05:44:39.179Z,6.80
2019-03-27T05:47:07.714Z,6.80
2019-03-27T05:49:36.205Z,6.90
2019-03-27T05:52:04.756Z,6.90
2019-03-27T05:54:33.015Z,6.90
2019-03-27T05:57:01.400Z,6.90
2019-03-27T05:59:29.953Z,6.90
2019-03-27T06:01:58.145Z,7.00
2019-03-27T06:04:27.015Z,7.00
2019-03-27T06:06:55.375Z,7.10
2019-03-27T06:09:23.586Z,7.10
2019-03-27T06:11:51.718Z,7.10
2019-03-27T06:14:36.967Z,7.30
2019-03-27T06:17:05.143Z,7.30
2019-03-27T06:19:33.304Z,7.40
2019-03-27T06:22:01.911Z,7.40
2019-03-27T06:24:30.452Z,7.50
2019-03-27T06:26:59.780Z,7.60
2019-03-27T06:29:28.049Z,7.60
2019-03-27T06:31:56.638Z,7.70
2019-03-27T06:34:24.816Z,7.80
2019-03-27T06:36:53.389Z,7.80
2019-03-27T06:39:21.509Z,7.80
2019-03-27T06:41:49.747Z,7.90
2019-03-27T06:44:17.834Z,8.00
2019-03-27T06:46:46.062Z,8.00
2019-03-27T06:49:14.319Z,8.10
2019-03-27T06:51:42.641Z,8.20
2019-03-27T06:54:10.797Z,8.30
2019-03-27T06:56:39.414Z,8.30
2019-03-27T06:59:08.080Z,8.40
2019-03-27T07:01:36.232Z,8.50
2019-03-27T07:04:10.357Z,8.60
2019-03-27T07:06:36.931Z,8.70
2019-03-27T07:09:07.228Z,8.70
2019-03-27T07:11:35.525Z,8.80
2019-03-27T07:14:06.852Z,8.90
2019-03-27T07:16:34.963Z,9.00
2019-03-27T07:19:03.712Z,9.00
2019-03-27T07:21:31.909Z,9.10
2019-03-27T07:24:00.071Z,9.20
2019-03-27T07:26:28.221Z,9.30
2019-03-27T07:28:56.527Z,9.50
2019-03-27T07:31:25.024Z,9.60
2019-03-27T07:33:53.300Z,9.70
2019-03-27T07:36:21.329Z,9.80
2019-03-27T07:38:49.851Z,9.90
2019-03-27T07:41:18.594Z,10.00
2019-03-27T07:43:46.840Z,10.00
2019-03-27T07:46:15.341Z,10.00
2019-03-27T07:48:53.963Z,10.00
2019-03-27T07:51:14.004Z,10.10
2019-03-27T07:53:42.213Z,10.00
2019-03-27T07:56:11.332Z,10.00
2019-03-27T07:58:39.569Z,10.00
2019-03-27T08:01:07.816Z,9.90
2019-03-27T08:03:35.844Z,10.00
2019-03-27T08:06:04.345Z,10.00
2019-03-27T08:08:33.712Z,10.00
2019-03-27T08:12:08.020Z,9.90
2019-03-27T08:14:37.701Z,10.30
2019-03-27T08:17:06.373Z,10.40
2019-03-27T08:19:36.066Z,10.60
2019-03-27T08:22:04.586Z,10.80
2019-03-27T08:24:37.975Z,11.20
2019-03-27T08:27:06.177Z,11.40
2019-03-27T08:29:34.790Z,11.20
2019-03-27T08:32:04.370Z,11.20
2019-03-27T08:34:33.383Z,11.40
2019-03-27T08:37:01.626Z,11.70
2019-03-27T08:39:39.791Z,11.90
2019-03-27T08:42:08.457Z,12.10
2019-03-27T08:44:36.626Z,12.50
2019-03-27T08:47:14.050Z,12.90
2019-03-27T08:49:42.337Z,13.10
2019-03-27T08:52:10.433Z,13.30
2019-03-27T08:54:38.707Z,13.40
2019-03-27T08:57:07.216Z,13.40
2019-03-27T08:59:35.370Z,13.20
2019-03-27T09:02:03.404Z,13.10
2019-03-27T09:04:31.587Z,13.00
2019-03-27T09:06:59.721Z,13.20
2019-03-27T09:09:28.152Z,13.10
2019-03-27T09:11:56.309Z,13.20
2019-03-27T09:14:24.631Z,13.50
2019-03-27T09:16:52.787Z,13.40
2019-03-27T09:19:34.487Z,13.30
2019-03-27T09:21:51.177Z,13.60
2019-03-27T09:24:19.562Z,13.80
2019-03-27T09:26:47.736Z,13.60
2019-03-27T09:29:16.363Z,13.60
2019-03-27T09:31:45.485Z,13.90
2019-03-27T09:34:17.482Z,14.00
2019-03-27T09:36:44.097Z,14.00
2019-03-27T09:39:12.251Z,14.10
2019-03-27T09:41:40.710Z,14.10
2019-03-27T09:44:09.082Z,14.20
2019-03-27T09:46:37.247Z,14.20
2019-03-27T09:49:05.387Z,14.20
2019-03-27T09:51:33.580Z,14.20
2019-03-27T09:54:01.942Z,14.30
2019-03-27T09:56:30.542Z,14.30
2019-03-27T09:58:59.099Z,14.10
2019-03-27T10:01:27.334Z,14.20
2019-03-27T10:03:55.677Z,14.10
2019-03-27T10:06:24.375Z,14.00
2019-03-27T10:08:52.635Z,14.30
2019-03-27T10:11:23.753Z,14.30
2019-03-27T10:13:50.827Z,14.50
2019-03-27T10:16:19.063Z,14.40
2019-03-27T10:18:47.695Z,14.50
2019-03-27T10:21:15.995Z,14.80
2019-03-27T10:23:44.166Z,15.10
2019-03-27T10:26:12.659Z,14.90
2019-03-27T10:28:41.301Z,14.50
2019-03-27T10:31:09.952Z,14.50
2019-03-27T10:33:38.637Z,14.70
2019-03-27T10:36:06.932Z,14.80
2019-03-27T10:38:35.194Z,15.10
2019-03-27T10:41:03.427Z,15.10
2019-03-27T10:43:32.086Z,15.20
2019-03-27T10:46:00.792Z,15.20
2019-03-27T10:48:28.944Z,15.40
2019-03-27T10:50:57.423Z,15.20
2019-03-27T10:53:26.309Z,15.40
2019-03-27T10:55:54.515Z,15.30
2019-03-27T10:58:22.767Z,15.50
2019-03-27T11:00:51.347Z,15.40
2019-03-27T11:03:19.863Z,15.10
2019-03-27T11:05:48.426Z,15.40
2019-03-27T11:08:16.597Z,15.60
2019-03-27T11:10:44.874Z,15.90
2019-03-27T11:13:13.027Z,15.70
2019-03-27T11:15:41.179Z,15.70
2019-03-27T11:18:09.347Z,15.50
2019-03-27T11:20:37.639Z,15.60
2019-03-27T11:23:06.242Z,15.20
2019-03-27T11:25:35.049Z,15.10
2019-03-27T11:28:04.701Z,15.10
2019-03-27T11:30:37.657Z,15.00
2019-03-27T11:33:06.879Z,14.80
2019-03-27T11:35:35.362Z,14.80
2019-03-27T11:38:03.643Z,15.00
2019-03-27T11:40:31.835Z,14.80
2019-03-27T11:43:00.601Z,14.90
2019-03-27T11:45:28.919Z,15.10
2019-03-27T11:47:57.216Z,14.80
2019-03-27T11:50:25.906Z,14.80
2019-03-27T11:52:54.213Z,15.20
2019-03-27T11:55:22.749Z,15.10
2019-03-27T11:57:51.652Z,15.00
2019-03-27T12:00:20.356Z,14.90
2019-03-27T12:02:48.662Z,14.80
2019-03-27T12:05:16.754Z,14.80
2019-03-27T12:07:45.345Z,15.00
2019-03-27T12:10:13.994Z,15.20
2019-03-27T12:12:42.168Z,15.10
2019-03-27T12:15:29.369Z,15.10
2019-03-27T12:18:16.567Z,15.30
2019-03-27T12:20:57.829Z,15.20
2019-03-27T12:23:15.139Z,15.30
2019-03-27T12:25:43.192Z,15.10
2019-03-27T12:28:12.001Z,15.30
2019-03-27T12:30:40.157Z,15.90
2019-03-27T12:33:08.508Z,16.40
2019-03-27T12:35:36.724Z,16.70
2019-03-27T12:38:05.307Z,16.50
2019-03-27T12:40:33.604Z,16.30
2019-03-27T12:43:01.935Z,15.80
2019-03-27T12:45:30.081Z,15.70
2019-03-27T12:47:58.695Z,15.50
2019-03-27T12:50:27.127Z,15.20
2019-03-27T12:52:55.611Z,15.10
2019-03-27T12:55:23.862Z,15.10
2019-03-27T12:57:52.366Z,15.30
2019-03-27T13:00:21.327Z,15.30
2019-03-27T13:02:49.905Z,15.10
2019-03-27T13:05:18.085Z,14.90
2019-03-27T13:07:50.267Z,14.80
2019-03-27T13:10:16.200Z,14.80
2019-03-27T13:12:45.056Z,14.90
2019-03-27T13:15:13.775Z,15.30
2019-03-27T13:17:41.931Z,15.30
2019-03-27T13:20:10.336Z,15.10
2019-03-27T13:22:38.814Z,15.20
2019-03-27T13:25:07.764Z,15.20
2019-03-27T13:27:35.915Z,15.00
2019-03-27T13:30:04.630Z,14.90
2019-03-27T13:32:33.007Z,15.10
2019-03-27T13:35:01.489Z,15.20
2019-03-27T13:37:30.108Z,15.00
2019-03-27T13:39:59.911Z,14.60
2019-03-27T13:42:28.747Z,14.50
2019-03-27T13:44:56.868Z,14.60
2019-03-27T13:47:25.075Z,14.70
2019-03-27T13:49:53.287Z,14.70
2019-03-27T13:52:21.479Z,14.70
2019-03-27T13:54:49.651Z,14.60
2019-03-27T13:57:17.825Z,14.40
2019-03-27T13:59:46.480Z,14.30
2019-03-27T14:02:14.603Z,14.10
2019-03-27T14:04:42.781Z,14.00
2019-03-27T14:07:11.255Z,13.90
2019-03-27T14:09:39.437Z,13.80
2019-03-27T14:12:07.517Z,14.00
2019-03-27T14:14:49.272Z,14.00
2019-03-27T14:17:06.511Z,14.10
2019-03-27T14:19:34.697Z,13.90
2019-03-27T14:22:02.886Z,13.80
2019-03-27T14:24:31.091Z,13.80
2019-03-27T14:26:59.583Z,13.90
2019-03-27T14:29:28.891Z,13.80
2019-03-27T14:31:57.149Z,13.70
2019-03-27T14:34:25.305Z,13.60
2019-03-27T14:36:53.456Z,13.60
2019-03-27T14:39:21.706Z,13.70
2019-03-27T14:41:50.159Z,13.70
2019-03-27T14:44:18.235Z,13.60
2019-03-27T14:46:46.514Z,13.70
2019-03-27T14:49:15.038Z,13.80
2019-03-27T14:51:43.496Z,13.90
2019-03-27T14:54:11.765Z,13.90
2019-03-27T14:56:39.813Z,13.70
2019-03-27T14:59:07.992Z,13.80
2019-03-27T15:01:36.090Z,13.70
2019-03-27T15:04:04.365Z,13.40
2019-03-27T15:06:32.561Z,13.30
2019-03-27T15:09:01.046Z,13.30
2019-03-27T15:11:29.387Z,13.30
2019-03-27T15:13:57.961Z,13.20
2019-03-27T15:16:26.129Z,13.20
2019-03-27T15:18:54.371Z,13.20
2019-03-27T15:21:23.555Z,13.10
2019-03-27T15:23:51.729Z,13.00
2019-03-27T15:26:20.198Z,13.00
2019-03-27T15:28:50.767Z,13.00
2019-03-27T15:31:20.683Z,13.00
2019-03-27T15:33:48.854Z,13.00
2019-03-27T15:36:17.336Z,13.00
2019-03-27T15:38:45.427Z,12.90
2019-03-27T15:41:13.579Z,12.90
2019-03-27T15:43:42.081Z,13.00
2019-03-27T15:46:10.247Z,13.10
2019-03-27T15:48:40.639Z,13.00
2019-03-27T15:51:08.888Z,13.10
2019-03-27T15:53:37.522Z,12.90
2019-03-27T15:56:05.762Z,13.00
2019-03-27T15:58:34.690Z,12.90
2019-03-27T16:01:05.098Z,12.90
2019-03-27T16:03:33.325Z,12.90
2019-03-27T16:06:01.475Z,12.80
2019-03-27T16:08:46.001Z,12.70
2019-03-27T16:11:14.321Z,12.60
2019-03-27T16:13:43.487Z,12.50
2019-03-27T16:16:12.193Z,12.30
2019-03-27T16:18:41.178Z,12.30
2019-03-27T16:21:09.803Z,12.20
2019-03-27T16:23:37.971Z,12.20
2019-03-27T16:26:08.472Z,12.10
2019-03-27T16:28:36.636Z,12.00
2019-03-27T16:31:05.621Z,12.00
2019-03-27T16:33:33.699Z,11.90
2019-03-27T16:36:02.265Z,11.90
2019-03-27T16:38:30.410Z,11.80
2019-03-27T16:40:58.633Z,11.70
2019-03-27T16:43:27.189Z,11.70
2019-03-27T16:45:55.328Z,11.70
2019-03-27T16:48:23.499Z,11.70
2019-03-27T16:50:51.985Z,11.70
2019-03-27T16:53:20.204Z,11.70
2019-03-27T16:55:48.781Z,11.60
2019-03-27T16:58:17.578Z,11.60
2019-03-27T17:00:46.167Z,11.60
2019-03-27T17:03:14.360Z,11.60
2019-03-27T17:05:53.385Z,11.50
2019-03-27T17:08:12.505Z,11.50
2019-03-27T17:10:40.840Z,11.50
2019-03-27T17:13:09.380Z,11.30
2019-03-27T17:15:38.167Z,11.30
2019-03-27T17:18:07.334Z,11.20
2019-03-27T17:20:35.528Z,11.10
2019-03-27T17:23:17.042Z,11.10
2019-03-27T17:25:34.555Z,11.00
2019-03-27T17:28:03.741Z,11.00
2019-03-27T17:30:34.279Z,10.90
2019-03-27T17:33:03.811Z,10.90
2019-03-27T17:35:32.698Z,10.80
2019-03-27T17:38:02.046Z,10.80
2019-03-27T17:40:30.714Z,10.80
2019-03-27T17:43:01.889Z,10.80
2019-03-27T17:45:31.214Z,10.70
2019-03-27T17:47:59.459Z,10.70
2019-03-27T17:50:27.870Z,10.60
2019-03-27T17:52:56.120Z,10.60
2019-03-27T17:55:24.689Z,10.60
2019-03-27T17:57:52.849Z,10.50
2019-03-27T18:00:42.581Z,10.50
2019-03-27T18:03:10.694Z,10.40
2019-03-27T18:05:39.465Z,10.40
2019-03-27T18:08:07.659Z,10.40
2019-03-27T18:10:36.290Z,10.30
2019-03-27T18:13:04.890Z,10.30
2019-03-27T18:15:33.922Z,10.20
2019-03-27T18:18:02.815Z,10.20
2019-03-27T18:20:31.261Z,10.20
2019-03-27T18:22:59.812Z,10.20
2019-03-27T18:25:27.996Z,10.10
2019-03-27T18:27:58.450Z,10.10
2019-03-27T18:30:26.726Z,10.10
2019-03-27T18:32:55.175Z,10.00
2019-03-27T18:35:23.323Z,10.00
2019-03-27T18:37:51.555Z,10.00
2019-03-27T18:40:19.698Z,9.90
2019-03-27T18:42:47.950Z,9.90
2019-03-27T18:45:16.763Z,9.90
2019-03-27T18:47:45.419Z,9.90
2019-03-27T18:50:14.735Z,9.90
2019-03-27T18:52:43.038Z,9.90
2019-03-27T18:55:11.605Z,9.80
2019-03-27T18:57:39.907Z,9.80
2019-03-27T19:00:09.665Z,9.90
2019-03-27T19:02:37.799Z,9.80
2019-03-27T19:05:06.720Z,9.80
2019-03-27T19:07:35.563Z,9.70
2019-03-27T19:10:05.063Z,9.70
2019-03-27T19:12:34.058Z,9.70
2019-03-27T19:15:02.922Z,9.60
2019-03-27T19:17:32.460Z,9.60
2019-03-27T19:20:01.081Z,9.50
2019-03-27T19:22:29.195Z,9.50
2019-03-27T19:24:57.544Z,9.50
2019-03-27T19:27:26.114Z,9.50
2019-03-27T19:29:54.833Z,9.50
2019-03-27T19:32:23.187Z,9.60
2019-03-27T19:34:51.627Z,9.60
2019-03-27T19:37:19.805Z,9.70
2019-03-27T19:39:49.100Z,9.70
2019-03-27T19:42:23.380Z,9.70
2019-03-27T19:44:52.023Z,9.70
2019-03-27T19:47:20.497Z,9.60
2019-03-27T19:49:49.929Z,9.60
2019-03-27T19:52:18.362Z,9.60
2019-03-27T19:54:46.546Z,9.60
2019-03-27T19:57:15.033Z,9.60
2019-03-27T19:59:43.328Z,9.50
2019-03-27T20:02:11.657Z,9.50
2019-03-27T20:04:40.152Z,9.50
2019-03-27T20:07:08.824Z,9.40
2019-03-27T20:09:37.157Z,9.40
2019-03-27T20:12:05.298Z,9.40
2019-03-27T20:14:33.639Z,9.40
2019-03-27T20:17:01.808Z,9.40
2019-03-27T20:19:30.624Z,9.40
2019-03-27T20:21:58.837Z,9.30
2019-03-27T20:24:40.489Z,9.40
2019-03-27T20:26:59.693Z,9.40
2019-03-27T20:29:28.206Z,9.30
2019-03-27T20:31:56.382Z,9.30
2019-03-27T20:34:24.742Z,9.30
2019-03-27T20:36:52.999Z,9.30
2019-03-27T20:39:21.446Z,9.30
2019-03-27T20:41:49.495Z,9.20
2019-03-27T20:44:19.741Z,9.20
2019-03-27T20:46:47.980Z,9.20
2019-03-27T20:49:16.339Z,9.20
2019-03-27T20:51:44.708Z,9.20
2019-03-27T20:54:12.876Z,9.20
2019-03-27T20:56:41.209Z,9.20
2019-03-27T20:59:09.761Z,9.20
2019-03-27T21:01:38.013Z,9.10
2019-03-27T21:04:06.447Z,9.10
2019-03-27T21:06:34.868Z,9.10
2019-03-27T21:09:04.507Z,9.00
2019-03-27T21:11:32.885Z,9.00
2019-03-27T21:14:01.019Z,8.90
2019-03-27T21:16:29.748Z,8.80
2019-03-27T21:18:58.464Z,8.80
2019-03-27T21:21:26.636Z,8.70
2019-03-27T21:23:55.027Z,8.70
2019-03-27T21:26:23.161Z,8.70
2019-03-27T21:28:52.283Z,8.60
2019-03-27T21:31:20.573Z,8.50
2019-03-27T21:33:49.005Z,8.30
2019-03-27T21:36:17.504Z,8.30
2019-03-27T21:38:45.804Z,8.10
2019-03-27T21:41:14.123Z,8.00
2019-03-27T21:43:42.539Z,8.00
2019-03-27T21:46:10.911Z,8.00
2019-03-27T21:48:41.916Z,8.10
2019-03-27T21:51:10.234Z,8.30
2019-03-27T21:53:38.604Z,8.40
2019-03-27T21:56:06.885Z,8.40
2019-03-27T21:58:35.561Z,8.50
2019-03-27T22:01:03.800Z,8.70
2019-03-27T22:03:31.995Z,8.70
2019-03-27T22:06:00.305Z,8.70
2019-03-27T22:08:28.973Z,8.80
2019-03-27T22:10:57.320Z,8.80
2019-03-27T22:13:26.000Z,8.80
2019-03-27T22:15:54.413Z,8.80
2019-03-27T22:18:22.913Z,8.80
2019-03-27T22:20:51.947Z,8.80
2019-03-27T22:23:20.171Z,8.70
2019-03-27T22:25:48.952Z,8.70
2019-03-27T22:28:17.161Z,8.70
2019-03-27T22:30:46.019Z,8.60
2019-03-27T22:33:14.613Z,8.50
2019-03-27T22:35:42.948Z,8.50
2019-03-27T22:38:11.465Z,8.50
2019-03-27T22:40:40.262Z,8.50
2019-03-27T22:43:08.807Z,8.40
2019-03-27T22:45:37.207Z,8.30
2019-03-27T22:48:05.794Z,8.30
2019-03-27T22:50:34.186Z,8.30
2019-03-27T22:53:03.170Z,8.30
2019-03-27T22:55:31.463Z,8.30
2019-03-27T22:57:59.765Z,8.30
2019-03-27T23:00:47.574Z,8.40
2019-03-27T23:03:18.506Z,8.40
2019-03-27T23:05:46.305Z,8.40
2019-03-27T23:08:15.463Z,8.40
2019-03-27T23:10:43.751Z,8.30
2019-03-27T23:13:13.598Z,8.30
2019-03-27T23:15:42.618Z,8.30
2019-03-27T23:18:10.804Z,8.30
2019-03-27T23:20:38.975Z,8.30
2019-03-27T23:23:07.407Z,8.20
2019-03-27T23:25:35.806Z,8.10
2019-03-27T23:28:04.333Z,8.10
2019-03-27T23:30:32.680Z,8.20
2019-03-27T23:33:00.997Z,8.20
2019-03-27T23:35:29.522Z,8.10
2019-03-27T23:37:57.979Z,8.10
2019-03-27T23:40:26.523Z,8.10
2019-03-27T23:42:55.186Z,8.20
2019-03-27T23:45:23.733Z,8.20
2019-03-27T23:47:52.354Z,8.20
2019-03-27T23:50:20.936Z,8.20
2019-03-27T23:52:49.357Z,8.10
2019-03-27T23:55:17.705Z,8.00
2019-03-27T23:57:45.960Z,8.00
